Time;durP1;ratioP1;P1;durP2;ratioP2;P2;SDS_P1;SDS_P2;PMS_P1;PMS_P2;Temp;Humidity;BMP_temperature;BMP_pressure;BME280_temperature;BME280_humidity;BME280_pressure;Samples;Min_cycle;Max_cycle;Signal;HPM_P1;HPM_P2
2022/11/01 00:02:05;;;;;;;53.97;34.55;;;;;;;11.57;98.53;101010.53;7398118;19;20085;-65
2022/11/01 00:04:33;;;;;;;55.42;36.60;;;;;;;11.56;98.86;101000.91;7400391;19;20094;-67
2022/11/01 00:07:02;;;;;;;49.17;34.92;;;;;;;11.57;98.81;101015.78;7400448;19;20027;-66
2022/11/01 00:09:30;;;;;;;54.60;36.13;;;;;;;11.58;98.88;101020.13;7399925;19;20349;-71
2022/11/01 00:11:59;;;;;;;53.63;35.47;;;;;;;11.58;99.09;101020.13;7398778;19;20014;-66
2022/11/01 00:14:28;;;;;;;52.38;38.10;;;;;;;11.58;99.06;101017.50;7400009;19;20085;-66
2022/11/01 00:16:59;;;;;;;62.97;38.42;;;;;;;11.60;99.33;101008.72;7399492;19;20019;-67
2022/11/01 00:19:27;;;;;;;56.85;37.30;;;;;;;11.61;99.54;100997.31;7400319;19;20018;-66
2022/11/01 00:21:55;;;;;;;59.25;38.28;;;;;;;11.61;99.47;100986.78;7397674;19;20086;-66
2022/11/01 00:24:24;;;;;;;55.15;37.53;;;;;;;11.62;99.71;100984.13;7399767;19;20086;-66
2022/11/01 00:26:53;;;;;;;56.45;38.63;;;;;;;11.63;99.67;100974.50;7399761;19;20028;-66
2022/11/01 00:29:21;;;;;;;63.08;39.42;;;;;;;11.64;99.86;100981.47;7399533;19;20078;-66
2022/11/01 00:31:50;;;;;;;54.45;38.58;;;;;;;11.65;99.89;100977.94;7398379;19;20516;-66
2022/11/01 00:34:27;;;;;;;62.10;38.25;;;;;;;11.64;100.00;100963.94;7399389;19;20035;-66
2022/11/01 00:36:56;;;;;;;51.88;35.35;;;;;;;11.65;100.00;100949.03;7399174;19;20083;-67
2022/11/01 00:39:31;;;;;;;61.67;36.97;;;;;;;11.64;100.00;100953.44;7399238;19;20022;-66
2022/11/01 00:42:00;;;;;;;58.42;37.95;;;;;;;11.64;100.00;100936.78;7396660;19;20477;-67
2022/11/01 00:44:28;;;;;;;59.88;37.47;;;;;;;11.64;100.00;100936.78;7398411;19;20078;-67
2022/11/01 00:46:57;;;;;;;70.78;41.15;;;;;;;11.65;100.00;100933.25;7399380;19;20081;-67
2022/11/01 00:49:28;;;;;;;57.25;37.72;;;;;;;11.66;100.00;100940.25;7398582;19;20549;-67
2022/11/01 00:51:56;;;;;;;60.10;38.42;;;;;;;11.67;100.00;100947.25;7397928;19;20082;-67
2022/11/01 00:54:24;;;;;;;59.45;38.38;;;;;;;11.68;100.00;100936.69;7398464;19;20427;-67
2022/11/01 00:56:53;;;;;;;59.63;37.20;;;;;;;11.68;100.00;100936.69;7398560;19;20086;-67
2022/11/01 00:59:22;;;;;;;57.60;38.78;;;;;;;11.69;100.00;100945.41;7398221;19;20082;-67
2022/11/01 01:01:50;;;;;;;58.60;38.45;;;;;;;11.68;100.00;100949.81;7396999;19;20042;-67
2022/11/01 01:04:19;;;;;;;60.75;38.63;;;;;;;11.68;100.00;100939.31;7398342;19;20415;-67
2022/11/01 01:06:50;;;;;;;54.78;37.65;;;;;;;11.68;100.00;100938.47;7398309;19;20086;-67
2022/11/01 01:09:18;;;;;;;55.65;39.08;;;;;;;11.69;100.00;100941.03;7398646;19;20070;-67
2022/11/01 01:11:47;;;;;;;56.03;38.38;;;;;;;11.68;100.00;100939.31;7397197;19;20026;-67
2022/11/01 01:14:15;;;;;;;64.20;38.85;;;;;;;11.67;100.00;100931.47;7398069;19;20078;-67
2022/11/01 01:16:44;;;;;;;58.97;38.97;;;;;;;11.65;100.00;100923.63;7398048;19;20163;-67
2022/11/01 01:19:12;;;;;;;58.80;39.47;;;;;;;11.64;100.00;100942.03;7395393;19;20077;-67
2022/11/01 01:21:40;;;;;;;61.90;38.80;;;;;;;11.63;100.00;100940.34;7397010;19;20100;-67
2022/11/01 01:24:12;;;;;;;58.17;38.42;;;;;;;11.63;100.00;100938.56;7395782;19;20082;-67
2022/11/01 01:26:40;;;;;;;55.17;37.45;;;;;;;11.58;100.00;100920.25;7396395;19;20098;-67
2022/11/01 01:29:08;;;;;;;53.33;35.58;;;;;;;11.58;100.00;100920.25;7398054;19;20091;-66
2022/11/01 01:31:37;;;;;;;57.45;37.38;;;;;;;11.55;100.00;100928.22;7395186;19;20082;-67
2022/11/01 01:34:05;;;;;;;55.78;36.85;;;;;;;11.52;100.00;100923.03;7395192;19;20552;-67
2022/11/01 01:36:34;;;;;;;51.55;36.60;;;;;;;11.51;100.00;100910.81;7395514;19;20018;-67
2022/11/01 01:39:12;;;;;;;56.45;37.53;;;;;;;11.49;100.00;100902.09;7395065;19;20419;-67
2022/11/01 01:45:02;;;;;;;58.05;39.55;;;;;;;11.46;100.00;100901.28;7397022;19;20014;-68
2022/11/01 01:47:33;;;;;;;62.20;38.70;;;;;;;11.42;100.00;100905.75;7396678;19;20027;-67
2022/11/01 01:50:05;;;;;;;63.38;38.85;;;;;;;11.42;100.00;100900.50;7397223;19;20078;-67
2022/11/01 01:52:39;;;;;;;56.10;38.53;;;;;;;11.41;100.00;100888.25;7395492;19;20070;-67
2022/11/01 01:55:12;;;;;;;62.28;39.35;;;;;;;11.39;100.00;100890.91;7395462;19;20087;-67
2022/11/01 01:57:42;;;;;;;60.05;37.88;;;;;;;11.37;100.00;100884.84;7395423;19;20074;-67
2022/11/01 02:00:12;;;;;;;60.45;39.80;;;;;;;11.37;100.00;100886.59;7394931;19;20084;-67
2022/11/01 02:02:42;;;;;;;57.97;39.28;;;;;;;11.36;100.00;100890.13;7394875;19;20520;-67
2022/11/01 02:05:16;;;;;;;61.05;36.67;;;;;;;11.33;100.00;100877.91;7396414;19;20086;-67
2022/11/01 02:07:46;;;;;;;57.10;36.38;;;;;;;11.31;100.00;100887.63;7396702;19;20082;-67
2022/11/01 02:10:18;;;;;;;53.50;37.25;;;;;;;11.29;100.00;100870.16;7394587;19;20446;-67
2022/11/01 02:12:48;;;;;;;52.35;35.22;;;;;;;11.27;100.00;100870.19;7395517;19;20080;-66
2022/11/01 02:15:18;;;;;;;59.00;36.13;;;;;;;11.26;100.00;100865.84;7394738;19;20074;-67
2022/11/01 02:18:07;;;;;;;52.97;36.90;;;;;;;11.24;100.00;100860.59;7395493;19;20030;-67
2022/11/01 02:21:23;;;;;;;49.13;34.45;;;;;;;11.21;100.00;100868.56;7395686;19;20500;-66
2022/11/01 02:24:24;;;;;;;45.83;32.45;;;;;;;11.18;100.00;100880.91;7394383;19;20070;-67
2022/11/01 02:27:18;;;;;;;52.83;33.00;;;;;;;11.12;100.00;100883.66;7393852;19;20432;-67
2022/11/01 02:30:07;;;;;;;55.30;33.53;;;;;;;11.08;100.00;100885.47;7393493;19;20426;-66
2022/11/01 02:33:04;;;;;;;50.63;34.55;;;;;;;11.04;100.00;100887.31;7394336;19;20018;-67
2022/11/01 02:35:45;;;;;;;49.70;31.98;;;;;;;11.01;100.00;100882.13;7395095;19;20078;-67
2022/11/01 02:38:20;;;;;;;46.35;32.38;;;;;;;10.99;100.00;100872.56;7394383;19;20089;-67
2022/11/01 02:40:56;;;;;;;50.38;35.20;;;;;;;10.95;100.00;100877.00;7395077;19;20409;-67
2022/11/01 02:43:31;;;;;;;46.42;32.05;;;;;;;10.91;100.00;100877.97;7395729;19;20098;-66
2022/11/01 02:46:59;;;;;;;48.53;32.08;;;;;;;10.89;100.00;100880.63;7393855;19;20014;-67
2022/11/01 02:48:55;;;;;;;48.72;32.72;;;;;;;10.84;100.00;100877.25;7394674;19;20043;-67
2022/11/01 02:51:25;;;;;;;46.85;31.67;;;;;;;10.82;100.00;100868.53;7394929;19;20074;-67
2022/11/01 02:53:53;;;;;;;49.30;34.47;;;;;;;10.79;100.00;100875.59;7393288;19;20094;-66
2022/11/01 02:56:23;;;;;;;46.40;32.80;;;;;;;10.76;100.00;100879.16;7395016;19;20091;-67
2022/11/01 02:58:54;;;;;;;42.22;31.88;;;;;;;10.73;100.00;100879.22;7392690;19;20011;-67
2022/11/01 03:01:29;;;;;;;53.88;34.90;;;;;;;10.70;100.00;100874.91;7394672;19;20023;-67
2022/11/01 03:04:02;;;;;;;48.47;32.53;;;;;;;10.68;100.00;100873.19;7394446;19;20557;-68
2022/11/01 03:06:37;;;;;;;51.13;33.15;;;;;;;10.65;100.00;100870.63;7393344;19;20074;-68
2022/11/01 03:09:08;;;;;;;42.63;31.05;;;;;;;10.63;100.00;100875.03;7394743;19;20081;-67
2022/11/01 03:11:50;;;;;;;47.85;31.88;;;;;;;10.60;100.00;100868.09;7393505;19;20014;-67
2022/11/01 03:14:30;;;;;;;45.33;31.15;;;;;;;10.56;100.00;100862.06;7395015;19;20086;-67
2022/11/01 03:17:03;;;;;;;48.55;33.17;;;;;;;10.54;100.00;100863.84;7395283;19;20074;-66
2022/11/01 03:19:45;;;;;;;44.63;32.87;;;;;;;10.51;100.00;100866.50;7393865;19;20032;-67
2022/11/01 03:22:17;;;;;;;45.70;31.45;;;;;;;10.49;100.00;100862.19;7394394;19;20018;-67
2022/11/01 03:24:50;;;;;;;41.78;30.52;;;;;;;10.46;100.00;100860.50;7395351;19;20019;-66
2022/11/01 03:27:25;;;;;;;43.08;31.48;;;;;;;10.43;100.00;100860.56;7392301;19;20078;-67
2022/11/01 03:30:00;;;;;;;44.22;31.88;;;;;;;10.41;100.00;100857.09;7391725;19;20070;-67
2022/11/01 03:32:35;;;;;;;40.30;30.63;;;;;;;10.38;100.00;100855.41;7392589;19;20087;-66
2022/11/01 03:35:09;;;;;;;44.60;29.40;;;;;;;10.35;100.00;100863.31;7391518;19;20010;-66
2022/11/01 03:37:41;;;;;;;46.20;30.42;;;;;;;10.33;100.00;100856.34;7393775;19;20078;-66
2022/11/01 03:40:14;;;;;;;42.28;30.02;;;;;;;10.31;100.00;100852.88;7394273;19;20086;-66
2022/11/01 03:42:45;;;;;;;37.58;28.30;;;;;;;10.30;100.00;100851.16;7392184;19;20091;-67
2022/11/01 03:45:17;;;;;;;39.47;30.02;;;;;;;10.27;100.00;100857.31;7392431;19;20444;-67
2022/11/01 03:47:45;;;;;;;39.20;28.92;;;;;;;10.26;100.00;100858.22;7393841;19;20490;-67
2022/11/01 03:50:19;;;;;;;38.70;30.08;;;;;;;10.25;100.00;100872.25;7393236;19;20073;-67
2022/11/01 03:52:48;;;;;;;55.58;30.77;;;;;;;10.21;100.00;100870.53;7391795;19;20095;-68
2022/11/01 03:55:21;;;;;;;49.88;30.45;;;;;;;10.20;100.00;100871.47;7391345;19;20082;-67
2022/11/01 03:57:51;;;;;;;55.70;30.77;;;;;;;10.17;100.00;100879.38;7395928;19;20026;-69
2022/11/01 04:00:22;;;;;;;58.40;30.63;;;;;;;10.14;100.00;100866.31;7400584;19;20098;-67
2022/11/01 04:02:51;;;;;;;66.15;31.27;;;;;;;10.11;100.00;100870.72;7397866;19;20024;-67
2022/11/01 04:05:23;;;;;;;65.43;32.08;;;;;;;10.08;100.00;100870.78;7400026;19;20514;-67
2022/11/01 04:07:52;;;;;;;64.75;31.27;;;;;;;10.06;100.00;100874.31;7397542;19;20086;-67
2022/11/01 04:10:22;;;;;;;73.03;30.73;;;;;;;10.03;100.00;100872.59;7397632;19;20026;-67
2022/11/01 04:12:52;;;;;;;58.88;29.27;;;;;;;10.00;100.00;100871.81;7397970;19;20078;-67
2022/11/01 04:20:53;;;;;;;64.22;32.00;;;;;;;9.90;100.00;100864.09;7399833;19;20070;-67
2022/11/01 04:23:22;;;;;;;58.13;29.83;;;;;;;9.87;100.00;100864.16;7397405;19;20098;-67
2022/11/01 04:25:50;;;;;;;49.40;28.75;;;;;;;9.86;100.00;100874.66;7399435;19;20541;-67
2022/11/01 04:28:19;;;;;;;49.63;30.85;;;;;;;9.82;100.00;100873.84;7399758;19;20081;-67
2022/11/01 04:30:47;;;;;;;46.67;30.88;;;;;;;9.81;100.00;100868.59;7398909;19;20090;-67
2022/11/01 04:33:15;;;;;;;51.00;31.67;;;;;;;9.77;100.00;100868.69;7397016;19;20094;-67
2022/11/01 04:35:44;;;;;;;47.53;29.92;;;;;;;9.75;100.00;100861.72;7398796;19;20089;-67
2022/11/01 04:38:16;;;;;;;49.95;31.30;;;;;;;9.72;100.00;100851.31;7396577;19;20485;-67
2022/11/01 04:40:45;;;;;;;41.80;30.50;;;;;;;9.69;100.00;100856.59;7399357;19;20070;-67
2022/11/01 04:43:14;;;;;;;45.58;30.25;;;;;;;9.67;100.00;100846.13;7398893;19;20032;-67
2022/11/01 04:45:42;;;;;;;50.50;30.92;;;;;;;9.66;100.00;100844.41;7396146;19;20383;-67
2022/11/01 04:48:15;;;;;;;47.50;31.80;;;;;;;9.64;100.00;100838.31;7396783;19;20027;-66
2022/11/01 04:50:44;;;;;;;49.03;31.70;;;;;;;9.62;100.00;100830.50;7396230;19;20010;-66
2022/11/01 04:53:16;;;;;;;41.78;31.55;;;;;;;9.64;100.00;100854.03;7398588;19;20027;-67
2022/11/01 04:55:44;;;;;;;44.78;32.55;;;;;;;9.64;100.00;100854.03;7398374;19;20015;-66
2022/11/01 04:58:13;;;;;;;45.78;32.85;;;;;;;9.64;100.00;100838.31;7398084;19;20027;-67
2022/11/01 05:00:42;;;;;;;47.33;31.83;;;;;;;9.65;100.00;100833.97;7395943;19;20022;-66
2022/11/01 05:03:12;;;;;;;44.03;31.63;;;;;;;9.64;100.00;100843.56;7398540;19;20095;-67
2022/11/01 05:05:41;;;;;;;46.92;33.25;;;;;;;9.65;100.00;100839.19;7398115;19;20436;-66
2022/11/01 05:08:12;;;;;;;48.15;33.28;;;;;;;9.65;100.00;100818.25;7397379;19;20489;-67
2022/11/01 05:10:44;;;;;;;38.47;30.00;;;;;;;9.65;100.00;100836.56;7395569;19;20490;-65
2022/11/01 05:13:14;;;;;;;43.17;30.80;;;;;;;9.64;100.00;100817.34;7397760;19;20015;-66
2022/11/01 05:15:43;;;;;;;40.50;29.92;;;;;;;9.65;100.00;100826.09;7397950;19;20027;-67
2022/11/01 05:18:11;;;;;;;41.35;30.33;;;;;;;9.62;100.00;100833.09;7395662;19;20082;-66
2022/11/01 05:20:40;;;;;;;40.88;30.65;;;;;;;9.62;100.00;100832.25;7397434;19;20498;-67
2022/11/01 05:23:08;;;;;;;42.97;31.25;;;;;;;9.62;100.00;100846.19;7397060;19;20010;-67
2022/11/01 05:25:37;;;;;;;45.92;33.28;;;;;;;9.62;100.00;100853.22;7397133;19;20482;-67
2022/11/01 05:28:09;;;;;;;44.53;33.80;;;;;;;9.61;100.00;100862.81;7395671;19;20039;-67
2022/11/01 05:30:39;;;;;;;42.45;32.78;;;;;;;9.60;100.00;100852.34;7397968;19;20070;-66
2022/11/01 05:33:08;;;;;;;45.38;32.30;;;;;;;9.59;100.00;100843.66;7395193;19;20082;-66
2022/11/01 05:35:38;;;;;;;45.20;33.63;;;;;;;9.59;100.00;100845.38;7395340;19;20018;-66
2022/11/01 05:38:07;;;;;;;45.13;32.33;;;;;;;9.58;100.00;100843.69;7397417;19;20138;-67
2022/11/01 05:40:35;;;;;;;37.80;30.08;;;;;;;9.58;100.00;100847.16;7394963;19;20023;-66
2022/11/01 05:43:04;;;;;;;41.72;31.00;;;;;;;9.58;100.00;100849.78;7394416;19;20015;-67
2022/11/01 05:45:35;;;;;;;41.97;31.00;;;;;;;9.58;100.00;100836.66;7395712;19;20010;-67
2022/11/01 05:48:04;;;;;;;45.97;32.47;;;;;;;9.61;100.00;100835.75;7396415;19;20022;-67
2022/11/01 05:50:33;;;;;;;42.38;33.13;;;;;;;9.61;100.00;100838.38;7397347;19;20022;-66
2022/11/01 05:53:09;;;;;;;47.75;33.58;;;;;;;9.62;100.00;100821.78;7394632;19;20010;-66
2022/11/01 05:55:38;;;;;;;47.92;32.38;;;;;;;9.62;100.00;100813.91;7396490;19;20028;-66
2022/11/01 05:58:07;;;;;;;45.55;33.80;;;;;;;9.64;100.00;100826.97;7396413;19;20031;-67
2022/11/01 06:00:38;;;;;;;52.33;33.88;;;;;;;9.65;100.00;100826.94;7394823;19;20456;-65
2022/11/01 06:03:07;;;;;;;50.85;36.00;;;;;;;9.66;100.00;100835.69;7394261;19;20458;-65
2022/11/01 06:05:36;;;;;;;49.28;35.50;;;;;;;9.69;100.00;100840.88;7395735;19;20040;-67
2022/11/01 06:08:05;;;;;;;53.63;37.00;;;;;;;9.70;100.00;100837.38;7394026;19;20482;-68
2022/11/01 06:10:35;;;;;;;49.08;37.17;;;;;;;9.71;100.00;100834.72;7396160;19;20013;-66
2022/11/01 06:13:03;;;;;;;57.60;39.67;;;;;;;9.73;100.00;100832.94;7393897;19;20027;-66
2022/11/01 06:15:32;;;;;;;55.08;41.70;;;;;;;9.75;100.00;100825.91;7393798;19;20482;-66
2022/11/01 06:18:03;;;;;;;63.22;42.72;;;;;;;9.77;100.00;100805.78;7395862;19;20018;-66
2022/11/01 06:20:33;;;;;;;63.95;41.63;;;;;;;9.80;100.00;100812.72;7393327;19;20419;-66
2022/11/01 06:23:02;;;;;;;58.97;41.15;;;;;;;9.82;100.00;100813.59;7393022;19;20420;-67
2022/11/01 06:25:30;;;;;;;57.88;41.22;;;;;;;9.86;100.00;100793.44;7395724;19;20019;-67
2022/11/01 06:28:05;;;;;;;67.32;43.30;;;;;;;9.88;100.00;100803.00;7394077;19;20022;-67
2022/11/01 06:30:34;;;;;;;67.75;43.85;;;;;;;9.93;100.00;100797.66;7395467;19;20010;-66
2022/11/01 06:33:05;;;;;;;66.40;42.00;;;;;;;9.96;100.00;100808.09;7393693;19;20048;-66
2022/11/01 06:35:34;;;;;;;72.45;45.15;;;;;;;10.00;100.00;100825.47;7396756;19;20019;-66
2022/11/01 06:38:06;;;;;;;75.72;49.38;;;;;;;10.05;100.00;100851.63;7393721;19;20103;-66
2022/11/01 06:40:34;;;;;;;73.13;50.53;;;;;;;10.08;100.00;100833.22;7393955;19;20022;-65
2022/11/01 06:43:04;;;;;;;74.35;48.58;;;;;;;10.12;100.00;100840.13;7393055;19;20445;-66
2022/11/01 06:45:33;;;;;;;76.47;45.63;;;;;;;10.15;100.00;100858.44;7393075;19;20014;-66
2022/11/01 06:48:05;;;;;;;70.82;45.85;;;;;;;10.19;100.00;100867.97;7394964;19;20413;-66
2022/11/01 06:50:34;;;;;;;75.50;46.63;;;;;;;10.23;100.00;100876.63;7395388;19;20082;-67
2022/11/01 06:53:02;;;;;;;71.45;46.20;;;;;;;10.25;100.00;100878.34;7392904;19;20077;-67
2022/11/01 06:55:31;;;;;;;78.57;46.97;;;;;;;10.28;100.00;100875.63;7394856;19;20022;-67
2022/11/01 06:58:02;;;;;;;69.22;43.92;;;;;;;10.32;100.00;100881.69;7395062;19;20040;-67
2022/11/01 07:00:32;;;;;;;65.25;42.63;;;;;;;10.33;100.00;100893.94;7393589;19;20015;-66
2022/11/01 07:03:03;;;;;;;62.28;39.72;;;;;;;10.38;100.00;100901.75;7392469;19;20423;-66
2022/11/01 07:05:35;;;;;;;58.50;40.35;;;;;;;10.42;100.00;100890.31;7392176;19;20018;-65
2022/11/01 07:08:03;;;;;;;61.70;38.90;;;;;;;10.46;100.00;100878.84;7392728;19;20070;-66
2022/11/01 07:10:32;;;;;;;52.72;37.38;;;;;;;10.51;100.00;100898.00;7394430;19;20022;-66
2022/11/01 07:13:01;;;;;;;49.75;34.72;;;;;;;10.56;100.00;100888.31;7392357;19;20114;-66
2022/11/01 07:15:31;;;;;;;57.33;38.22;;;;;;;10.61;100.00;100875.06;7394402;19;20372;-67
2022/11/01 07:18:00;;;;;;;50.15;34.80;;;;;;;10.65;100.00;100878.50;7394251;19;20014;-66
2022/11/01 07:20:30;;;;;;;49.40;32.72;;;;;;;10.70;100.00;100880.16;7391601;19;20418;-67
2022/11/01 07:23:02;;;;;;;50.63;34.08;;;;;;;10.75;100.00;100890.53;7391726;19;20031;-67
2022/11/01 07:25:32;;;;;;;40.72;31.35;;;;;;;10.79;100.00;100884.31;7394131;19;20019;-66
2022/11/01 07:28:01;;;;;;;44.17;30.17;;;;;;;10.84;100.00;100897.38;7393213;19;20023;-66
2022/11/01 07:30:30;;;;;;;42.28;29.50;;;;;;;10.89;100.00;100912.13;7393269;19;20499;-67
2022/11/01 07:33:00;;;;;;;42.35;30.92;;;;;;;10.94;100.00;100901.53;7394341;19;20018;-67
2022/11/01 07:35:29;;;;;;;40.30;28.67;;;;;;;10.99;100.00;100918.03;7400504;19;20051;-66
2022/11/01 07:38:02;;;;;;;41.45;28.75;;;;;;;11.03;100.00;100934.59;7401038;19;20039;-66
2022/11/01 07:40:37;;;;;;;38.75;25.90;;;;;;;11.08;100.00;100932.75;7399150;19;20042;-66
2022/11/01 07:43:07;;;;;;;35.30;24.52;;;;;;;11.13;100.00;100938.75;7398321;19;20022;-66
2022/11/01 07:45:37;;;;;;;34.08;24.33;;;;;;;11.17;100.00;100929.94;7399919;19;20018;-67
2022/11/01 07:48:09;;;;;;;33.65;24.65;;;;;;;11.21;100.00;100942.09;7397910;19;20082;-67
2022/11/01 07:50:38;;;;;;;38.30;23.08;;;;;;;11.25;100.00;100928.00;7401083;19;20031;-65
2022/11/01 07:53:10;;;;;;;30.92;23.40;;;;;;;11.32;100.00;100933.13;7398265;19;20022;-67
2022/11/01 07:55:39;;;;;;;34.45;22.90;;;;;;;11.36;100.00;100934.78;7398985;19;20018;-66
2022/11/01 07:58:09;;;;;;;28.98;22.55;;;;;;;11.41;99.81;100939.03;7399975;19;20027;-66
2022/11/01 08:00:38;;;;;;;35.05;22.80;;;;;;;11.47;99.41;100930.16;7398662;19;20011;-66
2022/11/01 08:03:09;;;;;;;32.28;21.42;;;;;;;11.53;99.09;100939.66;7398060;19;20015;-65
2022/11/01 08:05:38;;;;;;;38.85;20.38;;;;;;;11.61;98.88;100947.38;7400612;19;20011;-66
2022/11/01 08:08:09;;;;;;;28.00;20.75;;;;;;;11.66;98.84;100943.72;7400267;19;20099;-66
2022/11/01 08:10:39;;;;;;;30.02;21.08;;;;;;;11.73;98.51;100947.09;7397321;19;20485;-67
2022/11/01 08:13:10;;;;;;;27.48;19.33;;;;;;;11.81;98.36;100946.91;7399638;19;20375;-66
2022/11/01 08:15:38;;;;;;;32.97;19.98;;;;;;;11.89;98.10;100950.22;7397568;19;20023;-65
2022/11/01 08:18:06;;;;;;;30.58;19.40;;;;;;;11.96;97.64;100948.34;7399955;19;20022;-66
2022/11/01 08:20:35;;;;;;;25.80;18.05;;;;;;;12.03;97.36;100939.38;7397366;19;20074;-65
2022/11/01 08:23:04;;;;;;;25.45;17.73;;;;;;;12.10;97.25;100935.72;7397803;19;20074;-65
2022/11/01 08:25:35;;;;;;;25.58;17.73;;;;;;;12.16;96.76;100932.94;7399380;19;20036;-66
2022/11/01 08:28:04;;;;;;;24.58;17.40;;;;;;;12.22;96.21;100940.66;7396160;19;20376;-66
2022/11/01 08:30:33;;;;;;;22.90;16.75;;;;;;;12.29;96.18;100949.25;7399358;19;20029;-66
2022/11/01 08:33:02;;;;;;;23.73;17.50;;;;;;;12.34;95.61;100949.16;7397080;19;20022;-66
2022/11/01 08:35:31;;;;;;;21.98;17.48;;;;;;;12.40;95.84;100949.00;7396672;19;20090;-65
2022/11/01 08:38:00;;;;;;;25.80;17.83;;;;;;;12.48;95.34;100947.00;7398948;19;20077;-66
2022/11/01 08:40:29;;;;;;;25.23;16.63;;;;;;;12.54;95.36;100933.69;7397701;19;20018;-67
2022/11/01 08:43:01;;;;;;;21.58;15.55;;;;;;;12.60;95.41;100918.63;7395830;19;20493;-66
2022/11/01 08:45:36;;;;;;;22.85;15.30;;;;;;;12.65;94.54;100930.78;7397643;19;20023;-66
2022/11/01 08:48:11;;;;;;;19.05;14.15;;;;;;;12.72;94.26;100928.84;7396117;19;20472;-65
2022/11/01 08:50:40;;;;;;;22.63;15.43;;;;;;;12.77;93.95;100916.41;7398213;19;20015;-66
2022/11/01 08:53:10;;;;;;;18.92;13.55;;;;;;;12.84;93.79;100920.59;7398858;19;20019;-66
2022/11/01 08:55:39;;;;;;;19.60;14.52;;;;;;;12.91;94.07;100913.38;7399109;19;20022;-67
2022/11/01 08:58:10;;;;;;;21.13;14.30;;;;;;;12.97;93.83;100907.09;7398205;19;20018;-66
2022/11/01 09:00:39;;;;;;;20.45;13.77;;;;;;;13.03;93.23;100923.56;7396572;19;20018;-68
2022/11/01 09:03:07;;;;;;;18.60;13.13;;;;;;;13.12;92.98;100937.38;7397868;19;20501;-67
2022/11/01 09:05:37;;;;;;;20.15;12.27;;;;;;;13.20;92.12;100943.28;7397770;19;20018;-68
2022/11/01 09:08:06;;;;;;;20.63;12.05;;;;;;;13.29;91.65;100956.16;7395715;19;20493;-66
2022/11/01 09:10:34;;;;;;;20.40;11.25;;;;;;;13.38;91.45;100939.25;7397592;19;20018;-66
2022/11/01 09:13:03;;;;;;;18.98;12.50;;;;;;;13.46;91.02;100941.69;7395633;19;20035;-67
2022/11/01 09:15:35;;;;;;;21.90;12.40;;;;;;;13.56;90.57;100926.41;7396652;19;20487;-67
2022/11/01 09:18:07;;;;;;;16.63;12.32;;;;;;;13.64;90.18;100935.81;7395507;19;20015;-67
2022/11/01 09:20:36;;;;;;;21.63;13.07;;;;;;;13.72;89.93;100946.13;7395423;19;20025;-66
2022/11/01 09:23:04;;;;;;;17.63;12.55;;;;;;;13.81;89.63;100958.16;7396023;19;20015;-65
2022/11/01 09:25:33;;;;;;;17.55;12.32;;;;;;;13.89;88.94;100960.53;7396931;19;20545;-65
2022/11/01 09:28:01;;;;;;;23.23;12.23;;;;;;;13.95;88.87;100968.25;7397087;19;20510;-66
2022/11/01 09:30:30;;;;;;;19.35;13.15;;;;;;;14.02;88.38;100980.34;7396787;19;20471;-65
2022/11/01 09:33:05;;;;;;;16.25;10.68;;;;;;;14.07;88.19;100970.50;7395019;19;20519;-65
2022/11/01 09:35:34;;;;;;;19.27;11.07;;;;;;;14.14;88.10;100971.16;7394785;19;20023;-64
2022/11/01 09:38:04;;;;;;;16.98;11.30;;;;;;;14.20;87.52;100970.09;7397638;19;20026;-65
2022/11/01 09:40:42;;;;;;;16.38;10.45;;;;;;;14.27;87.47;100969.00;7395423;19;20031;-65
2022/11/01 09:43:15;;;;;;;18.73;11.23;;;;;;;14.32;86.95;100959.16;7397190;19;20018;-65
2022/11/01 09:45:44;;;;;;;21.63;11.57;;;;;;;14.41;86.62;100979.94;7396838;19;20019;-66
2022/11/01 09:48:17;;;;;;;19.25;10.68;;;;;;;14.49;85.53;100985.84;7395132;19;20018;-65
2022/11/01 09:50:45;;;;;;;16.83;9.75;;;;;;;14.59;85.53;100990.78;7395063;19;20035;-65
2022/11/01 09:53:20;;;;;;;16.95;10.35;;;;;;;14.68;85.54;100989.63;7396303;19;20023;-65
2022/11/01 09:55:56;;;;;;;13.80;9.20;;;;;;;14.75;84.44;100978.78;7394696;19;20553;-65
2022/11/01 09:58:35;;;;;;;16.45;8.88;;;;;;;14.85;83.28;100983.75;7396588;19;20015;-65
2022/11/01 10:01:19;;;;;;;17.70;9.38;;;;;;;14.92;83.84;100988.75;7394981;19;20015;-65
2022/11/01 10:04:05;;;;;;;14.40;9.27;;;;;;;15.00;83.86;100991.13;7396448;19;20074;-67
2022/11/01 10:06:37;;;;;;;14.52;9.88;;;;;;;15.07;83.72;100989.97;7395880;19;20826;-67
2022/11/01 10:09:15;;;;;;;18.38;9.05;;;;;;;15.13;82.35;101000.31;7396476;19;20043;-66
2022/11/01 10:12:05;;;;;;;14.70;9.05;;;;;;;15.21;82.46;101001.81;7394635;19;20011;-65
2022/11/01 10:14:50;;;;;;;13.98;8.82;;;;;;;15.27;82.59;101006.88;7395804;19;20029;-65
2022/11/01 10:17:25;;;;;;;13.10;8.18;;;;;;;15.32;82.52;101011.06;7395313;19;20074;-64
2022/11/01 10:19:57;;;;;;;14.43;9.10;;;;;;;15.36;81.60;101010.97;7394359;19;20018;-65
2022/11/01 10:22:31;;;;;;;17.95;9.90;;;;;;;15.40;81.61;101002.84;7393725;19;20022;-65
2022/11/01 10:25:03;;;;;;;15.25;9.20;;;;;;;15.45;82.14;100994.75;7395188;19;20377;-64
2022/11/01 10:27:44;;;;;;;14.23;9.52;;;;;;;15.50;81.68;101002.53;7394988;19;20147;-68
2022/11/01 10:30:16;;;;;;;12.30;8.95;;;;;;;15.55;81.87;100997.91;7395118;19;20010;-66
2022/11/01 10:32:49;;;;;;;14.15;9.50;;;;;;;15.62;81.14;101002.06;7393253;19;20031;-64
2022/11/01 10:35:23;;;;;;;14.33;8.83;;;;;;;15.70;81.86;101007.88;7392820;19;20490;-64
2022/11/01 10:37:59;;;;;;;16.85;8.95;;;;;;;15.78;81.29;100999.66;7393443;19;20090;-64
2022/11/01 10:40:35;;;;;;;17.20;9.77;;;;;;;15.87;81.07;101016.97;7393207;19;20510;-64
2022/11/01 10:43:07;;;;;;;14.77;8.40;;;;;;;15.92;80.72;101018.53;7393216;19;20070;-65
2022/11/01 10:45:35;;;;;;;15.15;8.65;;;;;;;15.98;80.93;101009.47;7395094;19;20202;-64
2022/11/01 10:48:04;;;;;;;17.00;9.23;;;;;;;16.04;80.18;101022.47;7392822;19;20369;-64
2022/11/01 10:50:36;;;;;;;16.42;7.80;;;;;;;16.11;78.33;101020.41;7394389;19;20015;-65
2022/11/01 10:53:10;;;;;;;12.70;7.53;;;;;;;16.21;80.00;101032.34;7393201;19;20021;-65
2022/11/01 10:55:44;;;;;;;11.93;7.00;;;;;;;16.28;79.36;101031.19;7395081;19;20091;-66
2022/11/01 10:58:21;;;;;;;9.55;6.63;;;;;;;16.35;78.68;101029.16;7394694;19;20403;-64
2022/11/01 11:00:50;;;;;;;13.57;6.25;;;;;;;16.43;79.72;101021.75;7393233;19;20018;-65
2022/11/01 11:03:22;;;;;;;10.63;5.97;;;;;;;16.50;78.83;101026.78;7394303;19;20433;-65
2022/11/01 11:05:56;;;;;;;10.80;5.93;;;;;;;16.54;78.73;101025.72;7393751;19;20018;-65
2022/11/01 11:08:26;;;;;;;8.75;5.55;;;;;;;16.57;78.41;101036.22;7398105;19;20047;-64
2022/11/01 11:10:57;;;;;;;14.13;5.97;;;;;;;16.55;77.23;101044.19;7401814;19;20031;-64
2022/11/01 11:13:28;;;;;;;11.55;5.53;;;;;;;16.54;77.52;101038.97;7402996;19;20364;-65
2022/11/01 11:16:00;;;;;;;9.80;5.72;;;;;;;16.53;77.86;101039.91;7399140;19;20011;-65
2022/11/01 11:18:32;;;;;;;12.00;6.18;;;;;;;16.49;77.50;101054.19;7401573;19;20500;-66
2022/11/01 11:21:07;;;;;;;12.77;6.55;;;;;;;16.47;78.23;101048.09;7400686;19;20014;-65
2022/11/01 11:23:41;;;;;;;12.50;5.65;;;;;;;16.44;78.70;101047.31;7398523;19;20038;-65
2022/11/01 11:26:15;;;;;;;16.33;6.53;;;;;;;16.36;77.99;101049.41;7401069;19;20031;-65
2022/11/01 11:28:45;;;;;;;;;;;;;;;16.32;77.67;101053.09;7398279;19;20018;-64
2022/11/01 11:31:17;;;;;;;9.32;5.75;;;;;;;16.27;78.59;101055.94;7400483;19;19918;-65
2022/11/01 11:33:51;;;;;;;11.88;6.07;;;;;;;16.23;79.03;101054.34;7402388;19;20018;-67
2022/11/01 11:36:33;;;;;;;12.50;6.13;;;;;;;16.22;79.98;101057.91;7401637;19;20023;-66